createdAt,value
2023-04-05T00:00:01.076Z,6.68
2023-04-05T00:02:29.837Z,9.80
2023-04-05T00:04:58.266Z,7.32
2023-04-05T00:07:26.502Z,6.93
2023-04-05T00:09:53.869Z,8.55
2023-04-05T00:12:21.096Z,6.20
2023-04-05T00:14:48.435Z,8.98
2023-04-05T00:17:15.471Z,9.63
2023-04-05T00:19:43.274Z,10.25
2023-04-05T00:22:10.649Z,6.97
2023-04-05T00:24:42.043Z,7.07
2023-04-05T00:27:09.145Z,6.30
2023-04-05T00:29:36.373Z,6.25
2023-04-05T00:32:04.797Z,7.25
2023-04-05T00:34:33.608Z,5.60
2023-04-05T00:37:00.826Z,5.30
2023-04-05T00:39:27.867Z,6.65
2023-04-05T00:41:56.058Z,7.28
2023-04-05T00:44:23.072Z,6.50
2023-04-05T00:46:50.048Z,6.15
2023-04-05T00:49:17.911Z,6.30
2023-04-05T00:51:45.859Z,5.45
2023-04-05T00:54:14.027Z,5.53
2023-04-05T00:56:41.629Z,4.72
2023-04-05T00:59:08.898Z,5.25
2023-04-05T01:01:40.324Z,7.72
2023-04-05T01:04:11.525Z,7.53
2023-04-05T01:07:05.148Z,6.63
2023-04-05T01:09:35.134Z,7.65
2023-04-05T01:12:09.155Z,5.15
2023-04-05T01:14:53.034Z,5.88
2023-04-05T01:17:22.749Z,5.97
2023-04-05T01:19:59.437Z,6.47
2023-04-05T01:22:40.414Z,5.68
2023-04-05T01:25:30.788Z,4.53
2023-04-05T01:28:35.766Z,4.22
2023-04-05T01:31:32.322Z,4.93
2023-04-05T01:34:07.221Z,6.13
2023-04-05T01:36:43.605Z,5.50
2023-04-05T01:39:14.856Z,7.18
2023-04-05T01:41:41.922Z,6.95
2023-04-05T01:44:09.078Z,6.00
2023-04-05T01:46:36.618Z,4.63
2023-04-05T01:49:05.697Z,5.35
2023-04-05T01:51:33.313Z,5.72
2023-04-05T01:54:00.662Z,8.35
2023-04-05T01:56:27.592Z,4.53
2023-04-05T01:58:54.613Z,5.38
2023-04-05T02:01:21.638Z,6.35
2023-04-05T02:03:48.790Z,6.43
2023-04-05T02:06:16.380Z,5.68
2023-04-05T02:08:43.441Z,4.18
2023-04-05T02:11:11.590Z,4.80
2023-04-05T02:13:40.032Z,5.18
2023-04-05T02:16:06.939Z,5.43
2023-04-05T02:18:33.962Z,6.03
2023-04-05T02:21:08.595Z,9.68
2023-04-05T02:23:37.916Z,6.13
2023-04-05T02:26:05.476Z,4.78
2023-04-05T02:28:32.413Z,5.07
2023-04-05T02:30:59.431Z,5.45
2023-04-05T02:33:27.665Z,6.00
2023-04-05T02:35:54.713Z,6.50
2023-04-05T02:38:21.928Z,5.32
2023-04-05T02:40:52.107Z,5.45
2023-04-05T02:43:19.065Z,5.88
2023-04-05T02:45:47.058Z,5.68
2023-04-05T02:48:14.980Z,5.70
2023-04-05T02:50:42.680Z,5.78
2023-04-05T02:53:10.013Z,9.63
2023-04-05T02:55:37.164Z,4.47
2023-04-05T02:58:04.129Z,4.95
2023-04-05T03:00:40.830Z,5.53
2023-04-05T03:03:09.554Z,4.88
2023-04-05T03:05:42.298Z,5.55
2023-04-05T03:08:18.647Z,4.97
2023-04-05T03:10:54.063Z,7.05
2023-04-05T03:13:21.120Z,6.60
2023-04-05T03:15:48.707Z,4.93
2023-04-05T03:18:18.308Z,8.23
2023-04-05T03:20:49.909Z,8.05
2023-04-05T03:23:20.996Z,6.05
2023-04-05T03:25:55.153Z,5.10
2023-04-05T03:28:25.681Z,10.48
2023-04-05T03:30:56.388Z,5.53
2023-04-05T03:33:23.488Z,6.38
2023-04-05T03:35:53.837Z,5.72
2023-04-05T03:38:21.707Z,7.43
2023-04-05T03:41:08.521Z,6.57
2023-04-05T03:43:36.473Z,5.32
2023-04-05T03:46:03.589Z,6.90
2023-04-05T03:48:30.822Z,5.95
2023-04-05T03:50:57.774Z,7.63
2023-04-05T03:53:24.825Z,5.55
2023-04-05T03:55:55.833Z,7.97
2023-04-05T03:58:42.038Z,5.38
2023-04-05T04:01:10.740Z,7.93
2023-04-05T04:03:38.196Z,7.35
2023-04-05T04:06:06.779Z,7.85
2023-04-05T04:08:34.188Z,7.80
2023-04-05T04:11:01.519Z,6.45
2023-04-05T04:13:32.657Z,9.93
2023-04-05T04:16:14.202Z,8.77
2023-04-05T04:19:04.208Z,6.85
2023-04-05T04:21:51.138Z,9.02
2023-04-05T04:24:32.721Z,6.72
2023-04-05T04:27:32.484Z,7.03
2023-04-05T04:30:18.304Z,6.03
2023-04-05T04:33:07.389Z,8.43
2023-04-05T04:35:46.817Z,10.07
2023-04-05T04:38:34.979Z,9.07
2023-04-05T04:41:29.356Z,7.22
2023-04-05T04:44:31.399Z,10.55
2023-04-05T04:47:23.069Z,8.23
2023-04-05T04:50:20.379Z,9.68
2023-04-05T04:52:48.332Z,8.68
2023-04-05T04:55:15.370Z,8.02
2023-04-05T04:57:46.021Z,10.52
2023-04-05T05:00:15.410Z,12.10
2023-04-05T05:02:44.180Z,9.02
2023-04-05T05:05:14.590Z,15.20
2023-04-05T05:07:42.408Z,13.55
2023-04-05T05:10:11.442Z,9.13
2023-04-05T05:12:41.125Z,11.30
2023-04-05T05:15:12.238Z,8.48
2023-04-05T05:17:39.679Z,11.43
2023-04-05T05:20:11.253Z,12.75
2023-04-05T05:22:42.491Z,9.98
2023-04-05T05:25:12.396Z,9.32
2023-04-05T05:27:39.681Z,15.90
2023-04-05T05:30:07.144Z,13.45
2023-04-05T05:32:34.178Z,9.80
2023-04-05T05:35:01.091Z,12.13
2023-04-05T05:37:32.317Z,11.20
2023-04-05T05:39:59.883Z,9.32
2023-04-05T05:42:27.406Z,11.30
2023-04-05T05:44:54.498Z,12.27
2023-04-05T05:47:21.837Z,12.90
2023-04-05T05:49:49.700Z,9.60
2023-04-05T05:52:16.966Z,16.50
2023-04-05T05:54:43.911Z,13.95
2023-04-05T05:57:10.889Z,13.95
2023-04-05T05:59:37.821Z,14.45
2023-04-05T06:02:04.740Z,15.23
2023-04-05T06:04:31.873Z,12.18
2023-04-05T06:06:59.103Z,11.85
2023-04-05T06:09:26.423Z,10.00
2023-04-05T06:11:57.018Z,15.48
2023-04-05T06:14:25.587Z,15.05
2023-04-05T06:16:52.845Z,15.95
2023-04-05T06:19:19.844Z,7.80
2023-04-05T06:21:46.972Z,13.18
2023-04-05T06:24:13.948Z,12.25
2023-04-05T06:26:41.325Z,18.70
2023-04-05T06:29:08.294Z,15.00
2023-04-05T06:31:36.710Z,10.93
2023-04-05T06:34:03.851Z,11.20
2023-04-05T06:36:34.578Z,10.90
2023-04-05T06:39:01.954Z,16.98
2023-04-05T06:41:28.873Z,23.60
2023-04-05T06:43:56.593Z,12.02
2023-04-05T06:46:24.743Z,23.25
2023-04-05T06:48:52.704Z,13.88
2023-04-05T06:51:20.122Z,14.77
2023-04-05T06:53:47.611Z,14.98
2023-04-05T06:56:14.519Z,15.77
2023-04-05T06:58:41.831Z,10.82
2023-04-05T07:01:08.986Z,15.20
2023-04-05T07:03:36.203Z,12.23
2023-04-05T07:06:04.397Z,18.60
2023-04-05T07:08:32.999Z,16.13
2023-04-05T07:10:59.901Z,15.13
2023-04-05T07:13:26.989Z,16.80
2023-04-05T07:16:01.431Z,15.23
2023-04-05T07:18:29.917Z,14.40
2023-04-05T07:21:00.892Z,12.25
2023-04-05T07:23:28.711Z,18.75
2023-04-05T07:26:00.499Z,12.25
2023-04-05T07:28:27.646Z,15.07
2023-04-05T07:30:54.600Z,16.30
2023-04-05T07:33:21.521Z,12.05
2023-04-05T07:35:56.673Z,12.07
2023-04-05T07:38:23.948Z,16.05
2023-04-05T07:40:51.469Z,14.23
2023-04-05T07:43:19.413Z,13.25
2023-04-05T07:45:46.437Z,14.30
2023-04-05T07:48:13.419Z,11.85
2023-04-05T07:50:42.427Z,13.15
2023-04-05T07:53:09.723Z,9.93
2023-04-05T07:55:38.308Z,9.90
2023-04-05T07:58:05.326Z,12.02
2023-04-05T08:00:32.348Z,17.10
2023-04-05T08:03:02.165Z,13.88
2023-04-05T08:05:29.706Z,11.27
2023-04-05T08:07:58.291Z,9.95
2023-04-05T08:10:25.735Z,9.73
2023-04-05T08:12:53.282Z,10.80
2023-04-05T08:15:20.232Z,11.13
2023-04-05T08:17:47.315Z,9.27
2023-04-05T08:20:14.280Z,9.05
2023-04-05T08:22:41.501Z,11.02
2023-04-05T08:25:09.318Z,6.82
2023-04-05T08:27:36.361Z,11.57
2023-04-05T08:30:04.189Z,12.20
2023-04-05T08:32:32.073Z,8.90
2023-04-05T08:34:59.067Z,12.75
2023-04-05T08:37:26.166Z,9.50
2023-04-05T08:39:53.196Z,8.60
2023-04-05T08:42:30.403Z,10.35
2023-04-05T08:44:59.863Z,12.93
2023-04-05T08:47:27.748Z,9.70
2023-04-05T08:49:54.816Z,13.25
2023-04-05T08:52:21.742Z,17.98
2023-04-05T08:54:50.731Z,12.55
2023-04-05T08:57:19.344Z,13.40
2023-04-05T08:59:46.873Z,10.98
2023-04-05T09:02:19.758Z,8.02
2023-04-05T09:04:48.603Z,8.60
2023-04-05T09:07:15.925Z,10.85
2023-04-05T09:09:47.445Z,9.15
2023-04-05T09:12:14.773Z,7.10
2023-04-05T09:14:42.997Z,12.10
2023-04-05T09:17:10.620Z,12.68
2023-04-05T09:19:38.041Z,10.32
2023-04-05T09:22:07.442Z,11.05
2023-04-05T09:24:47.014Z,10.35
2023-04-05T09:27:18.812Z,9.23
2023-04-05T09:29:51.114Z,9.52
2023-04-05T09:32:21.233Z,8.07
2023-04-05T09:34:48.700Z,6.35
2023-04-05T09:37:22.134Z,9.85
2023-04-05T09:39:51.683Z,8.40
2023-04-05T09:42:22.831Z,9.35
2023-04-05T09:45:05.254Z,7.75
2023-04-05T09:47:42.159Z,8.40
2023-04-05T09:50:15.753Z,6.63
2023-04-05T09:52:44.077Z,11.40
2023-04-05T09:55:11.692Z,7.60
2023-04-05T09:57:40.422Z,7.50
2023-04-05T10:00:18.933Z,7.72
2023-04-05T10:02:47.688Z,6.10
2023-04-05T10:05:15.840Z,9.02
2023-04-05T10:07:43.726Z,12.00
2023-04-05T10:10:12.887Z,6.57
2023-04-05T10:12:41.891Z,13.02
2023-04-05T10:15:10.662Z,10.80
2023-04-05T10:17:39.894Z,9.73
2023-04-05T10:20:17.210Z,7.70
2023-04-05T10:23:05.487Z,5.15
2023-04-05T10:25:47.738Z,8.73
2023-04-05T10:28:21.473Z,8.23
2023-04-05T10:30:53.074Z,10.82
2023-04-05T10:34:05.867Z,10.43
2023-04-05T10:36:58.478Z,8.77
2023-04-05T10:39:35.075Z,10.00
2023-04-05T10:42:11.657Z,7.75
2023-04-05T10:44:41.116Z,15.70
2023-04-05T10:47:14.004Z,12.95
2023-04-05T10:49:44.752Z,10.40
2023-04-05T10:52:11.945Z,7.45
2023-04-05T10:54:39.077Z,8.10
2023-04-05T10:57:10.179Z,11.98
2023-04-05T10:59:44.456Z,5.85
2023-04-05T11:02:12.335Z,7.72
2023-04-05T11:04:42.274Z,8.20
2023-04-05T11:07:17.642Z,9.77
2023-04-05T11:10:00.796Z,9.27
2023-04-05T11:12:47.045Z,4.80
2023-04-05T11:15:28.864Z,5.80
2023-04-05T11:18:06.272Z,9.60
2023-04-05T11:20:47.623Z,11.73
2023-04-05T11:23:17.311Z,7.55
2023-04-05T11:26:07.653Z,7.65
2023-04-05T11:28:42.281Z,7.35
2023-04-05T11:31:18.026Z,8.63
2023-04-05T11:33:47.670Z,7.40
2023-04-05T11:36:39.024Z,7.28
2023-04-05T11:39:23.449Z,6.47
2023-04-05T11:42:03.627Z,10.45
2023-04-05T11:44:48.309Z,8.35
2023-04-05T11:47:21.905Z,12.02
2023-04-05T11:49:52.054Z,8.60
2023-04-05T11:52:20.831Z,9.55
2023-04-05T11:54:49.221Z,9.80
2023-04-05T11:57:21.108Z,8.77
2023-04-05T11:59:53.670Z,13.07
2023-04-05T12:02:22.436Z,6.35
2023-04-05T12:04:59.806Z,9.77
2023-04-05T12:07:29.574Z,6.22
2023-04-05T12:10:03.689Z,5.65
2023-04-05T12:12:35.499Z,8.32
2023-04-05T12:15:04.160Z,11.55
2023-04-05T12:18:00.759Z,8.55
2023-04-05T12:20:28.608Z,5.22
2023-04-05T12:22:56.886Z,10.82
2023-04-05T12:25:24.910Z,6.80
2023-04-05T12:27:51.982Z,7.32
2023-04-05T12:30:22.025Z,9.73
2023-04-05T12:32:54.143Z,8.77
2023-04-05T12:35:24.600Z,8.27
2023-04-05T12:37:52.201Z,6.65
2023-04-05T12:40:23.457Z,11.07
2023-04-05T12:42:50.879Z,8.65
2023-04-05T12:45:18.604Z,10.70
2023-04-05T12:48:00.374Z,13.23
2023-04-05T12:50:31.709Z,4.30
2023-04-05T12:53:01.041Z,8.40
2023-04-05T12:55:29.591Z,10.02
2023-04-05T12:58:01.483Z,14.02
2023-04-05T13:00:31.019Z,11.48
2023-04-05T13:02:59.566Z,11.90
2023-04-05T13:05:29.070Z,16.23
2023-04-05T13:07:56.257Z,4.30
2023-04-05T13:10:24.890Z,6.57
2023-04-05T13:12:52.313Z,13.35
2023-04-05T13:15:19.853Z,11.63
2023-04-05T13:17:50.195Z,8.82
2023-04-05T13:20:18.175Z,12.32
2023-04-05T13:22:46.255Z,12.70
2023-04-05T13:25:14.825Z,9.77
2023-04-05T13:27:42.091Z,9.07
2023-04-05T13:30:09.916Z,11.98
2023-04-05T13:32:37.005Z,10.50
2023-04-05T13:35:05.698Z,14.50
2023-04-05T13:37:32.700Z,11.52
2023-04-05T13:39:59.683Z,15.45
2023-04-05T13:42:26.730Z,11.05
2023-04-05T13:44:53.741Z,9.63
2023-04-05T13:47:20.736Z,16.55
2023-04-05T13:49:47.680Z,10.05
2023-04-05T13:52:14.733Z,16.30
2023-04-05T13:54:41.950Z,6.90
2023-04-05T13:57:09.639Z,14.52
2023-04-05T13:59:36.754Z,16.17
2023-04-05T14:02:04.435Z,12.57
2023-04-05T14:04:31.606Z,15.32
2023-04-05T14:06:58.535Z,9.45
2023-04-05T14:09:25.652Z,16.75
2023-04-05T14:11:52.777Z,18.15
2023-04-05T14:14:19.689Z,9.80
2023-04-05T14:16:47.082Z,8.13
2023-04-05T14:19:14.144Z,16.80
2023-04-05T14:21:43.101Z,17.80
2023-04-05T14:24:10.161Z,12.95
2023-04-05T14:26:37.692Z,6.30
2023-04-05T14:29:05.224Z,11.43
2023-04-05T14:31:32.232Z,11.63
2023-04-05T14:33:59.772Z,10.18
2023-04-05T14:36:26.957Z,14.73
2023-04-05T14:38:53.904Z,16.13
2023-04-05T14:41:20.979Z,18.08
2023-04-05T14:43:48.077Z,10.30
2023-04-05T14:46:15.297Z,6.75
2023-04-05T14:48:42.520Z,5.10
2023-04-05T14:51:09.709Z,17.67
2023-04-05T14:53:37.332Z,11.30
2023-04-05T14:56:04.715Z,8.00
2023-04-05T14:58:34.019Z,6.18
2023-04-05T15:01:01.128Z,17.98
2023-04-05T15:03:29.160Z,13.23
2023-04-05T15:05:58.169Z,6.80
2023-04-05T15:08:25.161Z,10.00
2023-04-05T15:10:52.234Z,13.75
2023-04-05T15:13:20.859Z,13.18
2023-04-05T15:15:47.824Z,6.68
2023-04-05T15:18:14.879Z,9.98
2023-04-05T15:20:41.873Z,10.10
2023-04-05T15:23:08.872Z,9.52
2023-04-05T15:25:36.032Z,9.68
2023-04-05T15:28:06.699Z,6.53
2023-04-05T15:30:34.092Z,10.80
2023-04-05T15:33:01.553Z,7.85
2023-04-05T15:35:28.652Z,13.73
2023-04-05T15:37:55.601Z,11.02
2023-04-05T15:40:22.762Z,11.50
2023-04-05T15:42:49.743Z,4.38
2023-04-05T15:45:16.834Z,10.65
2023-04-05T15:47:44.105Z,13.73
2023-04-05T15:50:11.316Z,10.50
2023-04-05T15:52:38.443Z,14.93
2023-04-05T15:55:06.502Z,14.18
2023-04-05T15:57:33.449Z,9.95
2023-04-05T16:00:00.410Z,13.70
2023-04-05T16:02:27.503Z,9.85
2023-04-05T16:04:54.489Z,12.93
2023-04-05T16:07:21.887Z,14.25
2023-04-05T16:09:48.891Z,12.95
2023-04-05T16:12:16.202Z,10.32
2023-04-05T16:14:43.232Z,18.52
2023-04-05T16:17:10.422Z,13.57
2023-04-05T16:19:37.777Z,11.52
2023-04-05T16:22:04.810Z,5.35
2023-04-05T16:24:33.249Z,14.73
2023-04-05T16:27:00.368Z,8.10
2023-04-05T16:29:27.414Z,12.90
2023-04-05T16:31:54.615Z,13.95
2023-04-05T16:34:22.065Z,7.88
2023-04-05T16:36:49.366Z,13.02
2023-04-05T16:39:16.508Z,14.10
2023-04-05T16:41:43.840Z,13.77
2023-04-05T16:44:10.839Z,12.25
2023-04-05T16:46:38.136Z,12.48
2023-04-05T16:49:05.222Z,17.98
2023-04-05T16:51:34.628Z,13.52
2023-04-05T16:54:01.752Z,10.52
2023-04-05T16:56:28.814Z,10.88
2023-04-05T16:58:57.430Z,11.82
2023-04-05T17:01:24.817Z,13.23
2023-04-05T17:03:51.928Z,12.45
2023-04-05T17:06:18.957Z,10.52
2023-04-05T17:08:45.952Z,13.52
2023-04-05T17:11:12.986Z,10.70
2023-04-05T17:13:41.886Z,15.50
2023-04-05T17:16:09.125Z,11.82
2023-04-05T17:18:36.217Z,19.90
2023-04-05T17:21:03.291Z,5.47
2023-04-05T17:23:30.290Z,14.05
2023-04-05T17:25:57.201Z,12.68
2023-04-05T17:28:24.295Z,9.73
2023-04-05T17:30:51.298Z,14.65
2023-04-05T17:33:18.246Z,16.10
2023-04-05T17:35:45.197Z,11.98
2023-04-05T17:38:12.222Z,15.23
2023-04-05T17:40:40.203Z,10.18
2023-04-05T17:43:07.274Z,12.38
2023-04-05T17:45:34.269Z,10.68
2023-04-05T17:48:02.782Z,14.77
2023-04-05T17:50:30.077Z,18.15
2023-04-05T17:52:57.994Z,21.30
2023-04-05T17:55:25.790Z,16.88
2023-04-05T17:57:52.793Z,20.35
2023-04-05T18:00:19.883Z,34.40
2023-04-05T18:02:47.133Z,34.85
2023-04-05T18:05:14.284Z,27.40
2023-04-05T18:07:42.808Z,33.63
2023-04-05T18:10:10.360Z,33.20
2023-04-05T18:12:37.491Z,23.98
2023-04-05T18:15:04.759Z,23.73
2023-04-05T18:17:31.837Z,22.83
2023-04-05T18:19:58.955Z,28.50
2023-04-05T18:22:26.435Z,22.33
2023-04-05T18:24:53.554Z,18.33
2023-04-05T18:27:20.750Z,14.38
2023-04-05T18:29:48.719Z,24.85
2023-04-05T18:32:16.374Z,18.25
2023-04-05T18:34:43.855Z,17.65
2023-04-05T18:37:10.946Z,20.40
2023-04-05T18:39:40.871Z,22.88
2023-04-05T18:42:08.329Z,15.23
2023-04-05T18:44:35.355Z,16.48
2023-04-05T18:47:02.891Z,19.58
2023-04-05T18:49:29.924Z,18.15
2023-04-05T18:51:56.842Z,19.42
2023-04-05T18:54:24.325Z,22.13
2023-04-05T18:56:51.366Z,18.23
2023-04-05T18:59:20.705Z,16.00
2023-04-05T19:01:47.972Z,12.88
2023-04-05T19:04:16.384Z,13.68
2023-04-05T19:06:44.764Z,16.48
2023-04-05T19:09:12.103Z,14.90
2023-04-05T19:11:39.233Z,20.35
2023-04-05T19:14:06.335Z,15.23
2023-04-05T19:16:33.494Z,17.90
2023-04-05T19:19:00.593Z,19.08
2023-04-05T19:21:27.678Z,21.70
2023-04-05T19:23:56.058Z,14.77
2023-04-05T19:26:23.129Z,15.15
2023-04-05T19:28:50.117Z,15.60
2023-04-05T19:31:17.208Z,15.30
2023-04-05T19:33:44.376Z,17.95
2023-04-05T19:36:11.384Z,15.48
2023-04-05T19:38:40.164Z,14.60
2023-04-05T19:41:07.156Z,14.10
2023-04-05T19:43:36.713Z,18.40
2023-04-05T19:46:09.164Z,14.68
2023-04-05T19:48:41.445Z,16.00
2023-04-05T19:51:09.933Z,16.75
2023-04-05T19:53:51.036Z,16.90
2023-04-05T19:56:21.909Z,13.30
2023-04-05T19:59:00.984Z,16.98
2023-04-05T20:01:35.197Z,18.58
2023-04-05T20:04:20.488Z,15.45
2023-04-05T20:06:53.317Z,14.90
2023-04-05T20:09:24.837Z,18.92
2023-04-05T20:11:58.017Z,14.13
2023-04-05T20:14:52.076Z,17.02
2023-04-05T20:17:19.429Z,19.20
2023-04-05T20:19:57.694Z,25.85
2023-04-05T20:22:26.382Z,18.75
2023-04-05T20:24:53.668Z,21.63
2023-04-05T20:27:20.930Z,19.90
2023-04-05T20:29:47.910Z,18.55
2023-04-05T20:32:17.284Z,21.38
2023-04-05T20:34:46.165Z,17.42
2023-04-05T20:37:13.726Z,18.75
2023-04-05T20:39:44.134Z,17.23
2023-04-05T20:42:14.085Z,18.33
2023-04-05T20:44:41.421Z,18.02
2023-04-05T20:47:11.593Z,21.90
2023-04-05T20:49:38.888Z,15.88
2023-04-05T20:52:08.094Z,18.23
2023-04-05T20:54:35.512Z,20.67
2023-04-05T20:57:03.167Z,20.05
2023-04-05T20:59:30.585Z,20.38
2023-04-05T21:01:57.725Z,19.40
2023-04-05T21:04:25.641Z,21.67
2023-04-05T21:06:53.571Z,17.83
2023-04-05T21:09:20.638Z,19.60
2023-04-05T21:11:47.743Z,17.27
2023-04-05T21:14:14.808Z,18.95
2023-04-05T21:16:41.737Z,18.73
2023-04-05T21:19:08.921Z,18.17
2023-04-05T21:21:36.036Z,19.10
2023-04-05T21:24:03.221Z,14.88
2023-04-05T21:26:30.104Z,21.65
2023-04-05T21:28:57.208Z,17.67
2023-04-05T21:31:24.242Z,19.55
2023-04-05T21:33:51.221Z,16.77
2023-04-05T21:36:18.232Z,17.17
2023-04-05T21:38:45.227Z,17.17
2023-04-05T21:41:12.134Z,17.58
2023-04-05T21:43:39.100Z,14.93
2023-04-05T21:46:06.155Z,17.50
2023-04-05T21:48:33.121Z,20.85
2023-04-05T21:51:00.252Z,18.40
2023-04-05T21:53:27.461Z,15.43
2023-04-05T21:55:54.498Z,15.68
2023-04-05T21:58:21.512Z,16.70
2023-04-05T22:00:48.456Z,14.40
2023-04-05T22:03:15.811Z,16.90
2023-04-05T22:05:42.774Z,14.98
2023-04-05T22:08:09.905Z,13.27
2023-04-05T22:10:38.143Z,18.63
2023-04-05T22:13:05.240Z,18.55
2023-04-05T22:15:32.306Z,14.90
2023-04-05T22:17:59.301Z,13.85
2023-04-05T22:20:26.492Z,16.52
2023-04-05T22:22:53.501Z,21.40
2023-04-05T22:25:20.590Z,19.75
2023-04-05T22:27:47.563Z,18.10
2023-04-05T22:30:14.539Z,16.35
2023-04-05T22:32:41.537Z,14.95
2023-04-05T22:35:08.925Z,14.63
2023-04-05T22:37:37.955Z,14.15
2023-04-05T22:40:05.419Z,17.45
2023-04-05T22:42:32.425Z,16.33
2023-04-05T22:44:59.378Z,13.60
2023-04-05T22:47:26.456Z,16.30
2023-04-05T22:49:53.722Z,13.93
2023-04-05T22:52:20.762Z,13.00
2023-04-05T22:54:47.784Z,17.25
2023-04-05T22:57:14.846Z,13.05
2023-04-05T22:59:41.876Z,14.23
2023-04-05T23:02:09.799Z,14.70
2023-04-05T23:04:36.779Z,14.82
2023-04-05T23:07:03.868Z,15.63
2023-04-05T23:09:30.986Z,14.43
2023-04-05T23:11:57.924Z,14.18
2023-04-05T23:14:24.876Z,11.25
2023-04-05T23:16:51.799Z,14.15
2023-04-05T23:19:18.717Z,14.85
2023-04-05T23:21:45.730Z,14.25
2023-04-05T23:24:12.685Z,12.93
2023-04-05T23:26:39.799Z,16.27
2023-04-05T23:29:06.917Z,18.08
2023-04-05T23:31:34.324Z,15.93
2023-04-05T23:34:01.280Z,14.57
2023-04-05T23:36:28.858Z,13.90
2023-04-05T23:38:56.125Z,15.50
2023-04-05T23:41:23.091Z,13.30
2023-04-05T23:43:50.565Z,13.02
2023-04-05T23:46:17.626Z,13.50
2023-04-05T23:48:44.774Z,13.27
2023-04-05T23:51:11.779Z,14.00
2023-04-05T23:53:38.734Z,13.52
2023-04-05T23:56:06.242Z,12.73
2023-04-05T23:58:33.162Z,15.90
